sensor_id;sensor_type;location;lat;lon;timestamp;pressure;altitude;pressure_sealevel;temperature
24740;BMP280;45234;48.148;17.128;2022-07-18T00:02:27;100956.94;;;19.70
24740;BMP280;45234;48.148;17.128;2022-07-18T00:04:54;100954.56;;;19.68
24740;BMP280;45234;48.148;17.128;2022-07-18T00:07:21;100954.22;;;19.64
24740;BMP280;45234;48.148;17.128;2022-07-18T00:09:48;100955.59;;;19.67
24740;BMP280;45234;48.148;17.128;2022-07-18T00:12:15;100957.66;;;19.65
24740;BMP280;45234;48.148;17.128;2022-07-18T00:14:42;100957.31;;;19.61
24740;BMP280;45234;48.148;17.128;2022-07-18T00:17:10;100958.34;;;19.60
24740;BMP280;45234;48.148;17.128;2022-07-18T00:19:38;100951.72;;;19.58
24740;BMP280;45234;48.148;17.128;2022-07-18T00:22:05;100955.59;;;19.55
24740;BMP280;45234;48.148;17.128;2022-07-18T00:24:32;100954.84;;;19.55
24740;BMP280;45234;48.148;17.128;2022-07-18T00:27:01;100957.69;;;19.53
24740;BMP280;45234;48.148;17.128;2022-07-18T00:29:29;100947.63;;;19.50
24740;BMP280;45234;48.148;17.128;2022-07-18T00:31:56;100947.28;;;19.47
24740;BMP280;45234;48.148;17.128;2022-07-18T00:34:23;100954.84;;;19.43
24740;BMP280;45234;48.148;17.128;2022-07-18T00:36:50;100946.28;;;19.36
24740;BMP280;45234;48.148;17.128;2022-07-18T00:39:17;100946.75;;;19.33
24740;BMP280;45234;48.148;17.128;2022-07-18T00:41:48;100955.28;;;19.28
24740;BMP280;45234;48.148;17.128;2022-07-18T00:44:20;100952.34;;;19.25
24740;BMP280;45234;48.148;17.128;2022-07-18T00:46:57;100946.97;;;19.20
24740;BMP280;45234;48.148;17.128;2022-07-18T00:49:24;100949.16;;;19.23
24740;BMP280;45234;48.148;17.128;2022-07-18T00:51:52;100950.19;;;19.22
24740;BMP280;45234;48.148;17.128;2022-07-18T00:54:19;100940.13;;;19.19
24740;BMP280;45234;48.148;17.128;2022-07-18T00:56:49;100945.63;;;19.17
24740;BMP280;45234;48.148;17.128;2022-07-18T00:59:17;100952.69;;;19.17
24740;BMP280;45234;48.148;17.128;2022-07-18T01:01:44;100942.66;;;19.14
24740;BMP280;45234;48.148;17.128;2022-07-18T01:04:19;100936.03;;;19.00
24740;BMP280;45234;48.148;17.128;2022-07-18T01:06:48;100943.78;;;19.06
24740;BMP280;45234;48.148;17.128;2022-07-18T01:09:17;100945.63;;;19.06
24740;BMP280;45234;48.148;17.128;2022-07-18T01:11:46;100945.84;;;19.04
24740;BMP280;45234;48.148;17.128;2022-07-18T01:14:15;100948.16;;;19.01
24740;BMP280;45234;48.148;17.128;2022-07-18T01:16:42;100948.16;;;19.01
24740;BMP280;45234;48.148;17.128;2022-07-18T01:19:10;100949.03;;;18.95
24740;BMP280;45234;48.148;17.128;2022-07-18T01:21:38;100950.31;;;18.92
24740;BMP280;45234;48.148;17.128;2022-07-18T01:24:06;100953.63;;;18.87
24740;BMP280;45234;48.148;17.128;2022-07-18T01:26:33;100950.88;;;18.82
24740;BMP280;45234;48.148;17.128;2022-07-18T01:29:03;100954.75;;;18.80
24740;BMP280;45234;48.148;17.128;2022-07-18T01:31:30;100956.22;;;18.76
24740;BMP280;45234;48.148;17.128;2022-07-18T01:34:01;100955.91;;;18.72
24740;BMP280;45234;48.148;17.128;2022-07-18T01:36:28;100959.53;;;18.71
24740;BMP280;45234;48.148;17.128;2022-07-18T01:38:56;100958.53;;;18.72
24740;BMP280;45234;48.148;17.128;2022-07-18T01:41:23;100949.50;;;18.68
24740;BMP280;45234;48.148;17.128;2022-07-18T01:43:50;100955.56;;;18.69
24740;BMP280;45234;48.148;17.128;2022-07-18T01:46:17;100948.34;;;18.64
24740;BMP280;45234;48.148;17.128;2022-07-18T01:48:44;100948.78;;;18.61
24740;BMP280;45234;48.148;17.128;2022-07-18T01:51:11;100956.09;;;18.59
24740;BMP280;45234;48.148;17.128;2022-07-18T01:53:39;100949.13;;;18.53
24740;BMP280;45234;48.148;17.128;2022-07-18T01:56:08;100956.66;;;18.49
24740;BMP280;45234;48.148;17.128;2022-07-18T01:58:35;100961.53;;;18.46
24740;BMP280;45234;48.148;17.128;2022-07-18T02:01:02;100958.81;;;18.41
24740;BMP280;45234;48.148;17.128;2022-07-18T02:03:29;100949.31;;;18.40
24740;BMP280;45234;48.148;17.128;2022-07-18T02:05:57;100954.00;;;18.38
24740;BMP280;45234;48.148;17.128;2022-07-18T02:08:24;100959.69;;;18.35
24740;BMP280;45234;48.148;17.128;2022-07-18T02:10:52;100960.13;;;18.32
24740;BMP280;45234;48.148;17.128;2022-07-18T02:13:19;100955.31;;;18.29
24740;BMP280;45234;48.148;17.128;2022-07-18T02:15:47;100961.16;;;18.31
24740;BMP280;45234;48.148;17.128;2022-07-18T02:18:15;100957.94;;;18.29
24740;BMP280;45234;48.148;17.128;2022-07-18T02:20:42;100959.22;;;18.26
24740;BMP280;45234;48.148;17.128;2022-07-18T02:23:09;100962.03;;;18.25
24740;BMP280;45234;48.148;17.128;2022-07-18T02:25:36;100958.06;;;18.22
24740;BMP280;45234;48.148;17.128;2022-07-18T02:28:04;100963.50;;;18.21
24740;BMP280;45234;48.148;17.128;2022-07-18T02:30:31;100958.72;;;18.18
24740;BMP280;45234;48.148;17.128;2022-07-18T02:32:58;100966.03;;;18.16
24740;BMP280;45234;48.148;17.128;2022-07-18T02:35:26;100966.88;;;18.09
24740;BMP280;45234;48.148;17.128;2022-07-18T02:37:53;100963.69;;;18.07
24740;BMP280;45234;48.148;17.128;2022-07-18T02:40:20;100952.84;;;18.04
24740;BMP280;45234;48.148;17.128;2022-07-18T02:42:47;100967.78;;;18.03
24740;BMP280;45234;48.148;17.128;2022-07-18T02:45:15;100958.53;;;18.01
24740;BMP280;45234;48.148;17.128;2022-07-18T02:47:42;100956.09;;;17.99
24740;BMP280;45234;48.148;17.128;2022-07-18T02:50:10;100961.34;;;17.99
24740;BMP280;45234;48.148;17.128;2022-07-18T02:52:38;100963.19;;;17.99
24740;BMP280;45234;48.148;17.128;2022-07-18T02:55:06;100961.81;;;17.96
24740;BMP280;45234;48.148;17.128;2022-07-18T02:57:34;100964.91;;;17.93
24740;BMP280;45234;48.148;17.128;2022-07-18T03:00:03;100970.53;;;17.90
24740;BMP280;45234;48.148;17.128;2022-07-18T03:02:30;100973.63;;;17.87
24740;BMP280;45234;48.148;17.128;2022-07-18T03:04:57;100968.03;;;17.84
24740;BMP280;45234;48.148;17.128;2022-07-18T03:07:24;100962.00;;;17.83
24740;BMP280;45234;48.148;17.128;2022-07-18T03:09:51;100958.75;;;17.81
24740;BMP280;45234;48.148;17.128;2022-07-18T03:12:19;100964.66;;;17.77
24740;BMP280;45234;48.148;17.128;2022-07-18T03:14:46;100974.34;;;17.76
24740;BMP280;45234;48.148;17.128;2022-07-18T03:17:13;100970.13;;;17.75
24740;BMP280;45234;48.148;17.128;2022-07-18T03:19:40;100970.38;;;17.73
24740;BMP280;45234;48.148;17.128;2022-07-18T03:22:07;100975.00;;;17.71
24740;BMP280;45234;48.148;17.128;2022-07-18T03:24:34;100972.19;;;17.73
24740;BMP280;45234;48.148;17.128;2022-07-18T03:27:02;100974.19;;;17.71
24740;BMP280;45234;48.148;17.128;2022-07-18T03:29:29;100979.44;;;17.71
24740;BMP280;45234;48.148;17.128;2022-07-18T03:31:56;100973.41;;;17.70
24740;BMP280;45234;48.148;17.128;2022-07-18T03:34:23;100978.63;;;17.70
24740;BMP280;45234;48.148;17.128;2022-07-18T03:36:50;100977.84;;;17.70
24740;BMP280;45234;48.148;17.128;2022-07-18T03:39:17;100960.28;;;17.70
24740;BMP280;45234;48.148;17.128;2022-07-18T03:41:44;100960.91;;;17.72
24740;BMP280;45234;48.148;17.128;2022-07-18T03:44:11;100973.22;;;17.72
24740;BMP280;45234;48.148;17.128;2022-07-18T03:46:38;100963.31;;;17.74
24740;BMP280;45234;48.148;17.128;2022-07-18T03:49:06;100968.09;;;17.77
24740;BMP280;45234;48.148;17.128;2022-07-18T03:51:33;100971.53;;;17.78
24740;BMP280;45234;48.148;17.128;2022-07-18T03:54:00;100967.63;;;17.80
24740;BMP280;45234;48.148;17.128;2022-07-18T03:56:27;100976.72;;;17.84
24740;BMP280;45234;48.148;17.128;2022-07-18T03:58:54;100973.63;;;17.87
24740;BMP280;45234;48.148;17.128;2022-07-18T04:01:21;100966.34;;;17.89
24740;BMP280;45234;48.148;17.128;2022-07-18T04:03:48;100969.09;;;17.94
24740;BMP280;45234;48.148;17.128;2022-07-18T04:06:15;100967.66;;;17.98
24740;BMP280;45234;48.148;17.128;2022-07-18T04:08:42;100973.81;;;18.04
24740;BMP280;45234;48.148;17.128;2022-07-18T04:11:11;100976.34;;;18.10
24740;BMP280;45234;48.148;17.128;2022-07-18T04:13:44;100973.84;;;17.86
24740;BMP280;45234;48.148;17.128;2022-07-18T04:16:11;100978.75;;;18.12
24740;BMP280;45234;48.148;17.128;2022-07-18T04:18:38;100981.28;;;18.19
24740;BMP280;45234;48.148;17.128;2022-07-18T04:21:05;100984.84;;;18.24
24740;BMP280;45234;48.148;17.128;2022-07-18T04:23:33;100987.97;;;18.33
24740;BMP280;45234;48.148;17.128;2022-07-18T04:26:02;100978.41;;;18.38
24740;BMP280;45234;48.148;17.128;2022-07-18T04:28:31;100980.13;;;18.44
24740;BMP280;45234;48.148;17.128;2022-07-18T04:30:58;100978.47;;;18.50
24740;BMP280;45234;48.148;17.128;2022-07-18T04:33:25;100980.03;;;18.51
24740;BMP280;45234;48.148;17.128;2022-07-18T04:35:52;100981.63;;;18.52
24740;BMP280;45234;48.148;17.128;2022-07-18T04:38:19;100979.59;;;18.54
24740;BMP280;45234;48.148;17.128;2022-07-18T04:40:46;100981.22;;;18.55
24740;BMP280;45234;48.148;17.128;2022-07-18T04:43:14;100984.41;;;18.57
24740;BMP280;45234;48.148;17.128;2022-07-18T04:45:41;100984.53;;;18.62
24740;BMP280;45234;48.148;17.128;2022-07-18T04:48:08;100988.91;;;18.68
24740;BMP280;45234;48.148;17.128;2022-07-18T04:50:35;100990.16;;;18.77
24740;BMP280;45234;48.148;17.128;2022-07-18T04:53:02;100992.66;;;18.84
24740;BMP280;45234;48.148;17.128;2022-07-18T04:55:29;100993.59;;;18.90
24740;BMP280;45234;48.148;17.128;2022-07-18T04:57:56;100992.69;;;18.96
24740;BMP280;45234;48.148;17.128;2022-07-18T05:00:26;100998.31;;;18.99
24740;BMP280;45234;48.148;17.128;2022-07-18T05:02:55;100993.50;;;19.08
24740;BMP280;45234;48.148;17.128;2022-07-18T05:05:25;100986.53;;;19.13
24740;BMP280;45234;48.148;17.128;2022-07-18T05:07:59;100984.16;;;19.23
24740;BMP280;45234;48.148;17.128;2022-07-18T05:10:26;100990.97;;;19.36
24740;BMP280;45234;48.148;17.128;2022-07-18T05:12:54;100993.91;;;19.51
24740;BMP280;45234;48.148;17.128;2022-07-18T05:15:23;100998.72;;;19.66
24740;BMP280;45234;48.148;17.128;2022-07-18T05:17:51;100994.22;;;19.78
24740;BMP280;45234;48.148;17.128;2022-07-18T05:20:20;100994.19;;;19.90
24740;BMP280;45234;48.148;17.128;2022-07-18T05:22:47;100995.28;;;20.06
24740;BMP280;45234;48.148;17.128;2022-07-18T05:25:15;100992.66;;;20.22
24740;BMP280;45234;48.148;17.128;2022-07-18T05:27:42;100994.06;;;20.41
24740;BMP280;45234;48.148;17.128;2022-07-18T05:30:12;100998.78;;;20.73
24740;BMP280;45234;48.148;17.128;2022-07-18T05:32:43;101009.13;;;21.13
24740;BMP280;45234;48.148;17.128;2022-07-18T05:35:11;100997.63;;;21.41
24740;BMP280;45234;48.148;17.128;2022-07-18T05:37:39;101001.00;;;21.58
24740;BMP280;45234;48.148;17.128;2022-07-18T05:40:09;100997.22;;;21.97
24740;BMP280;45234;48.148;17.128;2022-07-18T05:42:36;101000.59;;;22.52
24740;BMP280;45234;48.148;17.128;2022-07-18T05:45:21;101008.09;;;23.07
24740;BMP280;45234;48.148;17.128;2022-07-18T05:47:50;101005.91;;;23.56
24740;BMP280;45234;48.148;17.128;2022-07-18T05:50:17;101008.88;;;24.45
24740;BMP280;45234;48.148;17.128;2022-07-18T05:52:45;101021.38;;;26.12
24740;BMP280;45234;48.148;17.128;2022-07-18T05:55:12;101018.28;;;28.07
24740;BMP280;45234;48.148;17.128;2022-07-18T05:57:39;101022.53;;;29.40
24740;BMP280;45234;48.148;17.128;2022-07-18T06:00:10;101024.28;;;29.98
24740;BMP280;45234;48.148;17.128;2022-07-18T06:02:38;101032.97;;;30.51
24740;BMP280;45234;48.148;17.128;2022-07-18T06:05:07;101028.63;;;30.89
24740;BMP280;45234;48.148;17.128;2022-07-18T06:07:54;101031.00;;;31.00
24740;BMP280;45234;48.148;17.128;2022-07-18T06:10:22;101030.25;;;30.99
24740;BMP280;45234;48.148;17.128;2022-07-18T06:12:50;101031.63;;;31.14
24740;BMP280;45234;48.148;17.128;2022-07-18T06:15:18;101023.44;;;31.02
24740;BMP280;45234;48.148;17.128;2022-07-18T06:17:45;101032.91;;;30.90
24740;BMP280;45234;48.148;17.128;2022-07-18T06:20:12;101021.72;;;30.97
24740;BMP280;45234;48.148;17.128;2022-07-18T06:22:40;101022.03;;;30.96
24740;BMP280;45234;48.148;17.128;2022-07-18T06:25:07;101023.59;;;31.31
24740;BMP280;45234;48.148;17.128;2022-07-18T06:27:36;101019.63;;;31.54
24740;BMP280;45234;48.148;17.128;2022-07-18T06:30:04;101015.56;;;31.86
24740;BMP280;45234;48.148;17.128;2022-07-18T06:32:32;101012.69;;;31.53
24740;BMP280;45234;48.148;17.128;2022-07-18T06:34:59;101018.25;;;30.14
24740;BMP280;45234;48.148;17.128;2022-07-18T06:37:26;101021.28;;;29.24
24740;BMP280;45234;48.148;17.128;2022-07-18T06:39:53;101013.94;;;29.07
24740;BMP280;45234;48.148;17.128;2022-07-18T06:42:20;101014.34;;;29.23
24740;BMP280;45234;48.148;17.128;2022-07-18T06:44:50;101021.63;;;29.98
24740;BMP280;45234;48.148;17.128;2022-07-18T06:47:18;101029.44;;;30.99
24740;BMP280;45234;48.148;17.128;2022-07-18T06:49:45;101016.34;;;31.86
24740;BMP280;45234;48.148;17.128;2022-07-18T06:52:13;101033.56;;;32.73
24740;BMP280;45234;48.148;17.128;2022-07-18T06:54:42;101030.81;;;33.60
24740;BMP280;45234;48.148;17.128;2022-07-18T06:57:09;101031.84;;;33.79
24740;BMP280;45234;48.148;17.128;2022-07-18T06:59:36;101035.22;;;34.13
24740;BMP280;45234;48.148;17.128;2022-07-18T07:02:04;101028.44;;;34.43
24740;BMP280;45234;48.148;17.128;2022-07-18T07:04:32;101032.88;;;34.79
24740;BMP280;45234;48.148;17.128;2022-07-18T07:06:59;101028.00;;;34.96
24740;BMP280;45234;48.148;17.128;2022-07-18T07:09:26;101026.34;;;34.52
24740;BMP280;45234;48.148;17.128;2022-07-18T07:11:53;101021.66;;;34.49
24740;BMP280;45234;48.148;17.128;2022-07-18T07:14:21;101012.53;;;33.53
24740;BMP280;45234;48.148;17.128;2022-07-18T07:16:48;101021.47;;;33.45
24740;BMP280;45234;48.148;17.128;2022-07-18T07:19:15;101013.19;;;33.50
24740;BMP280;45234;48.148;17.128;2022-07-18T07:21:42;101009.41;;;33.51
24740;BMP280;45234;48.148;17.128;2022-07-18T07:24:09;101006.69;;;33.39
24740;BMP280;45234;48.148;17.128;2022-07-18T07:26:36;101007.16;;;33.41
24740;BMP280;45234;48.148;17.128;2022-07-18T07:29:04;101008.72;;;33.66
24740;BMP280;45234;48.148;17.128;2022-07-18T07:31:31;101017.03;;;33.98
24740;BMP280;45234;48.148;17.128;2022-07-18T07:33:58;101012.44;;;33.74
24740;BMP280;45234;48.148;17.128;2022-07-18T07:36:32;101019.16;;;33.68
24740;BMP280;45234;48.148;17.128;2022-07-18T07:38:59;101008.75;;;32.88
24740;BMP280;45234;48.148;17.128;2022-07-18T07:41:26;101011.16;;;32.69
24740;BMP280;45234;48.148;17.128;2022-07-18T07:43:53;101007.31;;;32.70
24740;BMP280;45234;48.148;17.128;2022-07-18T07:46:21;101012.75;;;32.41
24740;BMP280;45234;48.148;17.128;2022-07-18T07:48:48;101017.34;;;32.61
24740;BMP280;45234;48.148;17.128;2022-07-18T07:51:15;101018.97;;;33.16
24740;BMP280;45234;48.148;17.128;2022-07-18T07:53:49;101019.38;;;33.06
24740;BMP280;45234;48.148;17.128;2022-07-18T07:56:16;101022.72;;;33.15
24740;BMP280;45234;48.148;17.128;2022-07-18T07:58:46;101009.78;;;32.84
24740;BMP280;45234;48.148;17.128;2022-07-18T08:01:13;101013.44;;;32.79
24740;BMP280;45234;48.148;17.128;2022-07-18T08:03:44;101015.84;;;32.31
24740;BMP280;45234;48.148;17.128;2022-07-18T08:06:12;101017.28;;;31.91
24740;BMP280;45234;48.148;17.128;2022-07-18T08:08:40;101009.88;;;32.17
24740;BMP280;45234;48.148;17.128;2022-07-18T08:11:07;101010.84;;;32.83
24740;BMP280;45234;48.148;17.128;2022-07-18T08:13:34;101015.19;;;32.96
24740;BMP280;45234;48.148;17.128;2022-07-18T08:16:02;101020.28;;;33.10
24740;BMP280;45234;48.148;17.128;2022-07-18T08:18:29;101021.75;;;33.52
24740;BMP280;45234;48.148;17.128;2022-07-18T08:20:56;101012.09;;;33.51
24740;BMP280;45234;48.148;17.128;2022-07-18T08:23:23;101018.44;;;33.34
24740;BMP280;45234;48.148;17.128;2022-07-18T08:25:50;101020.66;;;32.87
24740;BMP280;45234;48.148;17.128;2022-07-18T08:28:17;101027.38;;;32.52
24740;BMP280;45234;48.148;17.128;2022-07-18T08:30:45;101012.59;;;32.67
24740;BMP280;45234;48.148;17.128;2022-07-18T08:33:12;101012.19;;;32.98
24740;BMP280;45234;48.148;17.128;2022-07-18T08:35:39;101012.03;;;32.94
24740;BMP280;45234;48.148;17.128;2022-07-18T08:38:06;101013.84;;;33.02
24740;BMP280;45234;48.148;17.128;2022-07-18T08:40:34;101006.09;;;33.21
24740;BMP280;45234;48.148;17.128;2022-07-18T08:43:02;100999.50;;;33.31
24740;BMP280;45234;48.148;17.128;2022-07-18T08:45:49;100997.25;;;33.33
24740;BMP280;45234;48.148;17.128;2022-07-18T08:48:19;101003.59;;;33.49
24740;BMP280;45234;48.148;17.128;2022-07-18T08:50:48;100991.09;;;33.32
24740;BMP280;45234;48.148;17.128;2022-07-18T08:53:17;100996.03;;;33.30
24740;BMP280;45234;48.148;17.128;2022-07-18T08:55:44;100993.59;;;33.37
24740;BMP280;45234;48.148;17.128;2022-07-18T08:58:12;100994.44;;;33.17
24740;BMP280;45234;48.148;17.128;2022-07-18T09:01:01;100994.63;;;32.79
24740;BMP280;45234;48.148;17.128;2022-07-18T09:03:28;100994.22;;;32.89
24740;BMP280;45234;48.148;17.128;2022-07-18T09:06:09;100994.88;;;32.86
24740;BMP280;45234;48.148;17.128;2022-07-18T09:08:38;100988.44;;;33.00
24740;BMP280;45234;48.148;17.128;2022-07-18T09:11:11;100983.59;;;32.93
24740;BMP280;45234;48.148;17.128;2022-07-18T09:13:58;100984.34;;;32.81
24740;BMP280;45234;48.148;17.128;2022-07-18T09:16:26;100983.88;;;32.79
24740;BMP280;45234;48.148;17.128;2022-07-18T09:18:54;100985.19;;;32.11
24740;BMP280;45234;48.148;17.128;2022-07-18T09:21:22;100983.41;;;31.31
24740;BMP280;45234;48.148;17.128;2022-07-18T09:23:52;100985.63;;;31.29
24740;BMP280;45234;48.148;17.128;2022-07-18T09:26:42;100971.44;;;31.28
24740;BMP280;45234;48.148;17.128;2022-07-18T09:29:15;100968.91;;;31.32
24740;BMP280;45234;48.148;17.128;2022-07-18T09:31:53;100964.34;;;31.24
24740;BMP280;45234;48.148;17.128;2022-07-18T09:34:39;100957.84;;;31.25
24740;BMP280;45234;48.148;17.128;2022-07-18T09:37:12;100963.56;;;31.23
24740;BMP280;45234;48.148;17.128;2022-07-18T09:39:39;100955.81;;;31.30
24740;BMP280;45234;48.148;17.128;2022-07-18T09:42:14;100960.09;;;31.23
24740;BMP280;45234;48.148;17.128;2022-07-18T09:44:41;100948.91;;;31.12
24740;BMP280;45234;48.148;17.128;2022-07-18T09:47:09;100950.66;;;31.00
24740;BMP280;45234;48.148;17.128;2022-07-18T09:49:37;100946.41;;;30.90
24740;BMP280;45234;48.148;17.128;2022-07-18T09:52:09;100953.19;;;30.70
24740;BMP280;45234;48.148;17.128;2022-07-18T09:54:38;100940.59;;;30.54
24740;BMP280;45234;48.148;17.128;2022-07-18T09:57:06;100949.84;;;30.39
24740;BMP280;45234;48.148;17.128;2022-07-18T09:59:35;100946.47;;;30.08
24740;BMP280;45234;48.148;17.128;2022-07-18T10:02:03;100936.44;;;30.22
24740;BMP280;45234;48.148;17.128;2022-07-18T10:04:31;100933.94;;;30.34
24740;BMP280;45234;48.148;17.128;2022-07-18T10:06:58;100935.19;;;30.28
24740;BMP280;45234;48.148;17.128;2022-07-18T10:09:26;100936.00;;;30.37
24740;BMP280;45234;48.148;17.128;2022-07-18T10:11:55;100934.13;;;30.37
24740;BMP280;45234;48.148;17.128;2022-07-18T10:14:29;100934.09;;;30.29
24740;BMP280;45234;48.148;17.128;2022-07-18T10:16:58;100934.81;;;30.04
24740;BMP280;45234;48.148;17.128;2022-07-18T10:19:26;100937.97;;;29.66
24740;BMP280;45234;48.148;17.128;2022-07-18T10:21:54;100938.75;;;29.36
24740;BMP280;45234;48.148;17.128;2022-07-18T10:24:25;100931.63;;;29.09
24740;BMP280;45234;48.148;17.128;2022-07-18T10:27:16;100925.78;;;28.85
24740;BMP280;45234;48.148;17.128;2022-07-18T10:30:10;100925.84;;;28.58
24740;BMP280;45234;48.148;17.128;2022-07-18T10:32:39;100924.84;;;28.67
24740;BMP280;45234;48.148;17.128;2022-07-18T10:35:07;100928.59;;;28.66
24740;BMP280;45234;48.148;17.128;2022-07-18T10:37:35;100920.28;;;28.68
24740;BMP280;45234;48.148;17.128;2022-07-18T10:40:22;100916.38;;;28.65
24740;BMP280;45234;48.148;17.128;2022-07-18T10:45:58;100906.31;;;28.35
24740;BMP280;45234;48.148;17.128;2022-07-18T10:51:10;100913.56;;;28.21
24740;BMP280;45234;48.148;17.128;2022-07-18T10:54:04;100899.63;;;28.24
24740;BMP280;45234;48.148;17.128;2022-07-18T10:59:19;100892.81;;;28.18
24740;BMP280;45234;48.148;17.128;2022-07-18T11:01:53;100897.63;;;28.16
24740;BMP280;45234;48.148;17.128;2022-07-18T11:04:26;100888.56;;;28.17
24740;BMP280;45234;48.148;17.128;2022-07-18T11:07:14;100882.94;;;28.04
24740;BMP280;45234;48.148;17.128;2022-07-18T11:09:46;100883.41;;;28.06
24740;BMP280;45234;48.148;17.128;2022-07-18T11:20:40;100857.97;;;28.14
24740;BMP280;45234;48.148;17.128;2022-07-18T11:23:19;100856.56;;;28.17
24740;BMP280;45234;48.148;17.128;2022-07-18T11:25:57;100852.13;;;28.26
24740;BMP280;45234;48.148;17.128;2022-07-18T11:28:27;100855.19;;;28.33
24740;BMP280;45234;48.148;17.128;2022-07-18T11:31:21;100848.25;;;28.18
24740;BMP280;45234;48.148;17.128;2022-07-18T11:33:49;100846.69;;;28.31
24740;BMP280;45234;48.148;17.128;2022-07-18T11:36:19;100849.06;;;28.32
24740;BMP280;45234;48.148;17.128;2022-07-18T11:38:52;100852.00;;;28.31
24740;BMP280;45234;48.148;17.128;2022-07-18T11:41:21;100845.38;;;28.28
24740;BMP280;45234;48.148;17.128;2022-07-18T11:43:49;100850.94;;;28.32
24740;BMP280;45234;48.148;17.128;2022-07-18T11:46:18;100854.06;;;28.34
24740;BMP280;45234;48.148;17.128;2022-07-18T11:48:48;100842.13;;;28.31
24740;BMP280;45234;48.148;17.128;2022-07-18T11:51:17;100841.34;;;28.31
24740;BMP280;45234;48.148;17.128;2022-07-18T11:53:46;100836.25;;;28.21
24740;BMP280;45234;48.148;17.128;2022-07-18T11:56:15;100832.25;;;28.18
24740;BMP280;45234;48.148;17.128;2022-07-18T11:58:44;100823.38;;;28.23
24740;BMP280;45234;48.148;17.128;2022-07-18T12:01:12;100827.50;;;28.29
24740;BMP280;45234;48.148;17.128;2022-07-18T12:03:45;100828.50;;;28.33
24740;BMP280;45234;48.148;17.128;2022-07-18T12:06:15;100813.59;;;28.32
24740;BMP280;45234;48.148;17.128;2022-07-18T12:08:48;100815.78;;;28.30
24740;BMP280;45234;48.148;17.128;2022-07-18T12:16:55;100809.38;;;28.17
24740;BMP280;45234;48.148;17.128;2022-07-18T12:19:33;100800.97;;;28.24
24740;BMP280;45234;48.148;17.128;2022-07-18T12:24:35;100795.09;;;28.35
24740;BMP280;45234;48.148;17.128;2022-07-18T12:27:15;100790.97;;;28.29
24740;BMP280;45234;48.148;17.128;2022-07-18T12:30:07;100792.00;;;28.20
24740;BMP280;45234;48.148;17.128;2022-07-18T12:32:52;100796.59;;;28.28
24740;BMP280;45234;48.148;17.128;2022-07-18T12:35:24;100790.06;;;28.34
24740;BMP280;45234;48.148;17.128;2022-07-18T12:37:59;100786.59;;;28.33
24740;BMP280;45234;48.148;17.128;2022-07-18T12:43:25;100782.25;;;28.37
24740;BMP280;45234;48.148;17.128;2022-07-18T12:45:54;100781.16;;;28.38
24740;BMP280;45234;48.148;17.128;2022-07-18T12:48:22;100783.03;;;28.38
24740;BMP280;45234;48.148;17.128;2022-07-18T12:50:59;100778.94;;;28.32
24740;BMP280;45234;48.148;17.128;2022-07-18T12:53:28;100781.06;;;28.43
24740;BMP280;45234;48.148;17.128;2022-07-18T12:55:55;100782.03;;;28.47
24740;BMP280;45234;48.148;17.128;2022-07-18T12:58:23;100775.44;;;28.45
24740;BMP280;45234;48.148;17.128;2022-07-18T13:00:50;100775.28;;;28.50
24740;BMP280;45234;48.148;17.128;2022-07-18T13:03:17;100775.00;;;28.51
24740;BMP280;45234;48.148;17.128;2022-07-18T13:05:44;100780.50;;;28.55
24740;BMP280;45234;48.148;17.128;2022-07-18T13:08:12;100777.03;;;28.54
24740;BMP280;45234;48.148;17.128;2022-07-18T13:10:40;100767.44;;;28.45
24740;BMP280;45234;48.148;17.128;2022-07-18T13:13:08;100767.25;;;28.41
24740;BMP280;45234;48.148;17.128;2022-07-18T13:15:36;100772.75;;;28.45
24740;BMP280;45234;48.148;17.128;2022-07-18T13:18:04;100762.72;;;28.42
24740;BMP280;45234;48.148;17.128;2022-07-18T13:20:32;100750.13;;;28.42
24740;BMP280;45234;48.148;17.128;2022-07-18T13:22:59;100754.56;;;28.47
24740;BMP280;45234;48.148;17.128;2022-07-18T13:25:31;100755.09;;;28.58
24740;BMP280;45234;48.148;17.128;2022-07-18T13:28:00;100762.69;;;28.64
24740;BMP280;45234;48.148;17.128;2022-07-18T13:30:27;100753.13;;;28.63
24740;BMP280;45234;48.148;17.128;2022-07-18T13:32:54;100753.59;;;28.65
24740;BMP280;45234;48.148;17.128;2022-07-18T13:35:21;100744.38;;;28.71
24740;BMP280;45234;48.148;17.128;2022-07-18T13:37:48;100744.06;;;28.73
24740;BMP280;45234;48.148;17.128;2022-07-18T13:40:16;100743.16;;;28.77
24740;BMP280;45234;48.148;17.128;2022-07-18T13:42:43;100739.22;;;28.75
24740;BMP280;45234;48.148;17.128;2022-07-18T13:45:10;100742.97;;;28.74
24740;BMP280;45234;48.148;17.128;2022-07-18T13:47:41;100749.59;;;28.76
24740;BMP280;45234;48.148;17.128;2022-07-18T13:50:09;100742.53;;;28.80
24740;BMP280;45234;48.148;17.128;2022-07-18T13:52:37;100739.28;;;28.83
24740;BMP280;45234;48.148;17.128;2022-07-18T13:55:04;100736.16;;;28.90
24740;BMP280;45234;48.148;17.128;2022-07-18T13:57:33;100736.00;;;28.86
24740;BMP280;45234;48.148;17.128;2022-07-18T14:00:01;100733.94;;;28.83
24740;BMP280;45234;48.148;17.128;2022-07-18T14:02:36;100733.63;;;28.85
24740;BMP280;45234;48.148;17.128;2022-07-18T14:05:05;100725.78;;;28.88
24740;BMP280;45234;48.148;17.128;2022-07-18T14:07:42;100734.75;;;28.92
24740;BMP280;45234;48.148;17.128;2022-07-18T14:10:10;100726.47;;;29.02
24740;BMP280;45234;48.148;17.128;2022-07-18T14:12:38;100732.78;;;29.07
24740;BMP280;45234;48.148;17.128;2022-07-18T14:15:06;100733.09;;;29.05
24740;BMP280;45234;48.148;17.128;2022-07-18T14:17:34;100716.91;;;29.02
24740;BMP280;45234;48.148;17.128;2022-07-18T14:20:01;100721.28;;;28.97
24740;BMP280;45234;48.148;17.128;2022-07-18T14:22:28;100722.88;;;28.98
24740;BMP280;45234;48.148;17.128;2022-07-18T14:24:58;100717.66;;;28.93